createdAt,value
2022-11-16T00:01:06.738Z,99824.03
2022-11-16T00:03:34.492Z,99817.56
2022-11-16T00:06:03.918Z,99823.72
2022-11-16T00:08:35.069Z,99806.25
2022-11-16T00:11:16.364Z,99817.69
2022-11-16T00:13:43.755Z,99819.94
2022-11-16T00:16:16.741Z,99814.88
2022-11-16T00:18:44.515Z,99806.75
2022-11-16T00:21:11.501Z,99812.06
2022-11-16T00:23:38.815Z,99812.84
2022-11-16T00:26:06.868Z,99812.47
2022-11-16T00:28:33.713Z,99806.59
2022-11-16T00:31:02.399Z,99803.78
2022-11-16T00:33:29.570Z,99799.13
2022-11-16T00:35:56.149Z,99806.69
2022-11-16T00:38:22.954Z,99807.13
2022-11-16T00:40:49.879Z,99804.31
2022-11-16T00:43:16.493Z,99802.31
2022-11-16T00:45:43.974Z,99799.50
2022-11-16T00:48:10.851Z,99787.94
2022-11-16T00:50:37.979Z,99795.31
2022-11-16T00:53:05.675Z,99798.75
2022-11-16T00:55:33.011Z,99797.56
2022-11-16T00:58:00.120Z,99796.97
2022-11-16T01:00:26.898Z,99808.00
2022-11-16T01:02:54.588Z,99811.44
2022-11-16T01:05:22.227Z,99796.81
2022-11-16T01:07:49.791Z,99807.38
2022-11-16T01:10:19.687Z,99808.84
2022-11-16T01:12:47.410Z,99807.44
2022-11-16T01:15:14.286Z,99819.03
2022-11-16T01:17:41.759Z,99812.50
2022-11-16T01:20:13.031Z,99797.44
2022-11-16T01:22:41.059Z,99802.75
2022-11-16T01:25:08.465Z,99797.03
2022-11-16T01:27:35.385Z,99794.97
2022-11-16T01:30:01.817Z,99793.50
2022-11-16T01:32:28.271Z,99800.22
2022-11-16T01:34:54.720Z,99799.19
2022-11-16T01:37:21.215Z,99803.44
2022-11-16T01:39:49.584Z,99809.13
2022-11-16T01:42:28.656Z,99801.41
2022-11-16T01:45:00.199Z,99807.06
2022-11-16T01:47:27.123Z,99805.03
2022-11-16T01:49:59.487Z,99806.84
2022-11-16T01:52:31.316Z,99800.97
2022-11-16T01:54:58.308Z,99807.06
2022-11-16T01:57:31.005Z,99796.31
2022-11-16T02:00:00.128Z,99805.50
2022-11-16T02:02:26.902Z,99805.50
2022-11-16T02:04:55.398Z,99795.53
2022-11-16T02:07:53.914Z,99796.38
2022-11-16T02:11:02.124Z,99813.28
2022-11-16T02:13:57.830Z,99808.63
2022-11-16T02:16:33.345Z,99810.88
2022-11-16T02:19:06.321Z,99816.81
2022-11-16T02:21:35.431Z,99824.59
2022-11-16T02:24:23.129Z,99826.63
2022-11-16T02:26:55.464Z,99823.63
2022-11-16T02:29:30.097Z,99813.88
2022-11-16T02:32:09.661Z,99827.91
2022-11-16T02:35:01.481Z,99829.97
2022-11-16T02:37:33.264Z,99821.41
2022-11-16T02:40:03.350Z,99830.41
2022-11-16T02:42:44.952Z,99821.66
2022-11-16T02:45:18.490Z,99808.69
2022-11-16T02:47:47.568Z,99812.56
2022-11-16T02:50:18.722Z,99812.16
2022-11-16T02:52:45.624Z,99820.53
2022-11-16T02:55:12.522Z,99817.09
2022-11-16T02:57:59.143Z,99817.31
2022-11-16T03:00:32.375Z,99809.41
2022-11-16T03:03:34.236Z,99820.19
2022-11-16T03:06:16.502Z,99821.66
2022-11-16T03:08:47.991Z,99832.22
2022-11-16T03:11:33.430Z,99832.66
2022-11-16T03:14:09.561Z,99819.69
2022-11-16T03:16:43.999Z,99820.72
2022-11-16T03:19:14.473Z,99827.00
2022-11-16T03:21:48.518Z,99822.34
2022-11-16T03:24:15.585Z,99822.78
2022-11-16T03:27:01.783Z,99815.03
2022-11-16T03:29:33.930Z,99821.34
2022-11-16T03:32:10.990Z,99812.63
2022-11-16T03:34:40.066Z,99807.94
2022-11-16T03:37:06.749Z,99811.22
2022-11-16T03:39:38.315Z,99815.88
2022-11-16T03:42:09.508Z,99819.34
2022-11-16T03:44:37.076Z,99811.41
2022-11-16T03:47:03.649Z,99805.53
2022-11-16T03:49:31.155Z,99809.38
2022-11-16T03:51:58.495Z,99804.28
2022-11-16T03:54:25.369Z,99812.84
2022-11-16T03:56:51.924Z,99813.66
2022-11-16T03:59:18.378Z,99821.56
2022-11-16T04:01:45.154Z,99825.63
2022-11-16T04:04:31.748Z,99819.09
2022-11-16T04:07:16.718Z,99821.16
2022-11-16T04:10:01.654Z,99823.78
2022-11-16T04:12:46.567Z,99824.59
2022-11-16T04:15:31.755Z,99826.22
2022-11-16T04:18:16.984Z,99823.97
2022-11-16T04:21:03.127Z,99828.03
2022-11-16T04:23:48.748Z,99827.41
2022-11-16T04:26:15.627Z,99829.22
2022-11-16T04:28:42.331Z,99830.44
2022-11-16T04:31:27.227Z,99824.34
2022-11-16T04:34:12.511Z,99827.41
2022-11-16T04:36:57.608Z,99824.72
2022-11-16T04:39:24.060Z,99812.28
2022-11-16T04:42:08.992Z,99816.78
2022-11-16T04:44:55.292Z,99808.84
2022-11-16T04:47:21.758Z,99810.03
2022-11-16T04:49:48.376Z,99804.13
2022-11-16T04:52:15.014Z,99810.22
2022-11-16T04:54:41.507Z,99805.34
2022-11-16T04:57:08.000Z,99811.66
2022-11-16T04:59:34.453Z,99812.66
2022-11-16T05:02:10.037Z,99823.22
2022-11-16T05:04:38.971Z,99817.53
2022-11-16T05:07:11.304Z,99806.16
2022-11-16T05:09:43.291Z,99823.41
2022-11-16T05:12:12.356Z,99821.81
2022-11-16T05:14:38.832Z,99828.50
2022-11-16T05:17:05.332Z,99829.09
2022-11-16T05:19:50.273Z,99819.34
2022-11-16T05:22:16.874Z,99825.00
2022-11-16T05:24:43.512Z,99822.78
2022-11-16T05:27:12.709Z,99825.00
2022-11-16T05:29:39.638Z,99834.97
2022-11-16T05:32:07.229Z,99833.75
2022-11-16T05:34:34.342Z,99827.66
2022-11-16T05:37:00.932Z,99839.44
2022-11-16T05:39:27.995Z,99834.97
2022-11-16T05:41:54.919Z,99841.25
2022-11-16T05:44:21.486Z,99827.44
2022-11-16T05:46:48.766Z,99832.34
2022-11-16T05:49:15.975Z,99835.38
2022-11-16T05:51:44.473Z,99832.97
2022-11-16T05:54:21.422Z,99821.22
2022-11-16T05:56:49.414Z,99834.63
2022-11-16T05:59:17.248Z,99829.97
2022-11-16T06:01:44.026Z,99829.34
2022-11-16T06:04:11.574Z,99826.31
2022-11-16T06:06:38.563Z,99827.75
2022-11-16T06:09:05.705Z,99828.53
2022-11-16T06:11:36.088Z,99827.91
2022-11-16T06:14:03.574Z,99820.22
2022-11-16T06:16:30.211Z,99827.91
2022-11-16T06:18:56.815Z,99831.97
2022-11-16T06:21:23.371Z,99828.72
2022-11-16T06:23:50.029Z,99836.84
2022-11-16T06:26:16.667Z,99838.88
2022-11-16T06:28:43.525Z,99829.75
2022-11-16T06:31:10.003Z,99834.41
2022-11-16T06:33:36.850Z,99830.38
2022-11-16T06:36:03.902Z,99825.91
2022-11-16T06:38:30.537Z,99828.75
2022-11-16T06:40:58.576Z,99820.66
2022-11-16T06:43:26.215Z,99823.69
2022-11-16T06:45:56.742Z,99811.09
2022-11-16T06:48:23.440Z,99813.53
2022-11-16T06:50:51.973Z,99814.91
2022-11-16T06:53:19.448Z,99811.50
2022-11-16T06:55:45.944Z,99806.78
2022-11-16T06:58:12.864Z,99811.28
2022-11-16T07:00:39.452Z,99821.19
2022-11-16T07:03:06.018Z,99818.56
2022-11-16T07:05:33.205Z,99826.06
2022-11-16T07:07:59.690Z,99815.13
2022-11-16T07:10:26.685Z,99834.41
2022-11-16T07:12:53.333Z,99826.47
2022-11-16T07:15:20.263Z,99821.63
2022-11-16T07:17:47.065Z,99824.25
2022-11-16T07:20:13.709Z,99823.03
2022-11-16T07:22:40.401Z,99827.53
2022-11-16T07:25:07.658Z,99829.56
2022-11-16T07:27:34.139Z,99826.50
2022-11-16T07:30:02.178Z,99823.06
2022-11-16T07:32:31.055Z,99831.59
2022-11-16T07:34:59.379Z,99819.97
2022-11-16T07:37:26.477Z,99835.22
2022-11-16T07:39:53.067Z,99844.50
2022-11-16T07:42:19.559Z,99836.38
2022-11-16T07:44:46.216Z,99842.25
2022-11-16T07:47:12.720Z,99851.75
2022-11-16T07:49:39.237Z,99854.19
2022-11-16T07:52:10.604Z,99853.59
2022-11-16T07:54:37.532Z,99856.41
2022-11-16T07:57:04.253Z,99867.00
2022-11-16T07:59:30.721Z,99861.91
2022-11-16T08:01:59.259Z,99867.84
2022-11-16T08:04:25.999Z,99873.94
2022-11-16T08:06:52.706Z,99859.13
2022-11-16T08:09:19.306Z,99874.59
2022-11-16T08:11:47.162Z,99865.47
2022-11-16T08:14:14.001Z,99869.94
2022-11-16T08:16:40.647Z,99869.56
2022-11-16T08:19:07.155Z,99869.16
2022-11-16T08:21:33.826Z,99867.13
2022-11-16T08:24:00.289Z,99857.63
2022-11-16T08:26:27.595Z,99855.81
2022-11-16T08:28:56.404Z,99851.56
2022-11-16T08:31:26.119Z,99856.84
2022-11-16T08:33:52.856Z,99855.22
2022-11-16T08:36:19.867Z,99856.66
2022-11-16T08:38:48.303Z,99846.72
2022-11-16T08:41:15.785Z,99857.91
2022-11-16T08:43:42.690Z,99862.75
2022-11-16T08:46:10.419Z,99853.81
2022-11-16T08:48:37.749Z,99868.47
2022-11-16T08:51:19.262Z,99865.00
2022-11-16T08:53:48.151Z,99861.19
2022-11-16T08:56:15.867Z,99845.53
2022-11-16T08:58:52.481Z,99851.22
2022-11-16T09:01:24.514Z,99846.75
2022-11-16T09:03:52.264Z,99840.03
2022-11-16T09:06:19.533Z,99843.91
2022-11-16T09:08:47.081Z,99839.59
2022-11-16T09:11:17.706Z,99834.13
2022-11-16T09:13:46.342Z,99836.94
2022-11-16T09:16:15.814Z,99839.97
2022-11-16T09:18:43.888Z,99843.81
2022-11-16T09:21:10.381Z,99836.69
2022-11-16T09:23:36.888Z,99835.63
2022-11-16T09:26:05.208Z,99842.56
2022-11-16T09:28:32.388Z,99831.16
2022-11-16T09:31:04.333Z,99826.69
2022-11-16T09:33:32.157Z,99818.69
2022-11-16T09:36:07.125Z,99824.97
2022-11-16T09:38:55.722Z,99822.75
2022-11-16T09:41:38.759Z,99827.78
2022-11-16T09:44:13.955Z,99822.25
2022-11-16T09:46:48.362Z,99835.91
2022-11-16T09:49:21.320Z,99833.03
2022-11-16T09:51:53.111Z,99842.31
2022-11-16T09:54:33.432Z,99839.78
2022-11-16T09:57:06.722Z,99838.91
2022-11-16T09:59:41.365Z,99826.88
2022-11-16T10:02:25.338Z,99839.06
2022-11-16T10:04:58.229Z,99841.97
2022-11-16T10:07:31.784Z,99839.41
2022-11-16T10:09:58.414Z,99853.06
2022-11-16T10:12:53.735Z,99857.16
2022-11-16T10:15:39.085Z,99868.63
2022-11-16T10:18:46.819Z,99865.16
2022-11-16T10:21:35.364Z,99864.72
2022-11-16T10:24:10.617Z,99864.28
2022-11-16T10:26:51.651Z,99849.66
2022-11-16T10:29:36.769Z,99860.38
2022-11-16T10:32:21.957Z,99858.09
2022-11-16T10:34:55.417Z,99847.44
2022-11-16T10:37:24.465Z,99841.25
2022-11-16T10:39:53.350Z,99839.84
2022-11-16T10:42:31.265Z,99836.41
2022-11-16T10:45:15.782Z,99847.00
2022-11-16T10:47:50.376Z,99832.13
2022-11-16T10:50:45.959Z,99846.09
2022-11-16T10:53:25.908Z,99838.53
2022-11-16T10:56:12.254Z,99820.88
2022-11-16T10:58:54.287Z,99814.66
2022-11-16T11:01:41.056Z,99822.75
2022-11-16T11:04:24.529Z,99830.03
2022-11-16T11:06:52.771Z,99826.72
2022-11-16T11:09:36.536Z,99820.91
2022-11-16T11:12:23.923Z,99825.88
2022-11-16T11:15:01.430Z,99813.41
2022-11-16T11:17:29.260Z,99814.38
2022-11-16T11:20:05.632Z,99813.34
2022-11-16T11:22:35.163Z,99804.25
2022-11-16T11:25:03.587Z,99811.53
2022-11-16T11:27:35.161Z,99802.94
2022-11-16T11:30:02.045Z,99802.78
2022-11-16T11:32:38.382Z,99800.88
2022-11-16T11:35:06.573Z,99804.16
2022-11-16T11:37:35.875Z,99791.44
2022-11-16T11:40:18.616Z,99799.84
2022-11-16T11:42:57.509Z,99785.97
2022-11-16T11:45:56.130Z,99785.81
2022-11-16T11:48:42.824Z,99801.19
2022-11-16T11:51:15.825Z,99792.56
2022-11-16T11:54:04.547Z,99797.78
2022-11-16T11:56:33.188Z,99795.44
2022-11-16T11:59:00.536Z,99802.91
2022-11-16T12:01:47.069Z,99788.31
2022-11-16T12:04:34.911Z,99776.19
2022-11-16T12:07:15.120Z,99763.38
2022-11-16T12:10:12.311Z,99775.16
2022-11-16T12:12:56.354Z,99774.66
2022-11-16T12:15:46.202Z,99776.09
2022-11-16T12:18:35.993Z,99769.66
2022-11-16T12:21:11.421Z,99764.13
2022-11-16T12:24:04.432Z,99768.59
2022-11-16T12:26:43.675Z,99777.94
2022-11-16T12:29:25.676Z,99774.75
2022-11-16T12:32:27.897Z,99785.88
2022-11-16T12:35:15.842Z,99790.22
2022-11-16T12:38:07.440Z,99777.63
2022-11-16T12:40:43.177Z,99779.69
2022-11-16T12:43:36.549Z,99769.53
2022-11-16T12:46:06.959Z,99768.72
2022-11-16T12:48:39.155Z,99775.66
2022-11-16T12:51:17.051Z,99768.41
2022-11-16T12:53:46.552Z,99763.25
2022-11-16T12:56:49.164Z,99763.19
2022-11-16T12:59:39.758Z,99751.41
2022-11-16T13:02:24.482Z,99754.34
2022-11-16T13:05:04.861Z,99753.91
2022-11-16T13:07:44.161Z,99743.13
2022-11-16T13:10:18.710Z,99736.44
2022-11-16T13:12:55.828Z,99740.91
2022-11-16T13:15:40.433Z,99749.38
2022-11-16T13:18:15.790Z,99745.91
2022-11-16T13:20:54.297Z,99732.53
2022-11-16T13:23:43.508Z,99722.22
2022-11-16T13:26:26.230Z,99733.47
2022-11-16T13:29:17.124Z,99742.75
2022-11-16T13:31:58.181Z,99745.81
2022-11-16T13:34:32.870Z,99746.72
2022-11-16T13:36:59.403Z,99742.25
2022-11-16T13:39:58.090Z,99741.31
2022-11-16T13:42:25.336Z,99738.66
2022-11-16T13:44:52.870Z,99738.94
2022-11-16T13:47:27.391Z,99747.13
2022-11-16T13:50:07.232Z,99745.28
2022-11-16T13:55:33.511Z,99741.19
2022-11-16T13:58:02.967Z,99739.53
2022-11-16T14:00:38.960Z,99728.41
2022-11-16T14:03:38.755Z,99728.16
2022-11-16T14:06:45.688Z,99711.09
2022-11-16T14:09:41.378Z,99703.13
2022-11-16T14:12:49.228Z,99688.19
2022-11-16T14:15:36.173Z,99671.53
2022-11-16T14:18:02.749Z,99669.47
2022-11-16T14:20:43.691Z,99655.72
2022-11-16T14:23:28.738Z,99656.06
2022-11-16T14:26:21.050Z,99669.25
2022-11-16T14:28:53.204Z,99673.41
2022-11-16T14:31:30.025Z,99674.59
2022-11-16T14:33:58.868Z,99668.88
2022-11-16T14:36:42.312Z,99669.59
2022-11-16T14:39:27.892Z,99666.47
2022-11-16T14:41:58.603Z,99665.22
2022-11-16T14:44:29.612Z,99671.59
2022-11-16T14:46:56.696Z,99664.97
2022-11-16T14:49:26.114Z,99657.31
2022-11-16T14:51:59.375Z,99646.78
2022-11-16T14:54:46.519Z,99659.06
2022-11-16T14:57:19.605Z,99654.44
2022-11-16T14:59:46.255Z,99658.53
2022-11-16T15:02:27.369Z,99647.41
2022-11-16T15:04:54.645Z,99654.41
2022-11-16T15:07:25.926Z,99639.00
2022-11-16T15:09:55.467Z,99639.00
2022-11-16T15:12:41.570Z,99636.78
2022-11-16T15:15:15.042Z,99622.00
2022-11-16T15:17:52.566Z,99616.28
2022-11-16T15:20:20.775Z,99610.56
2022-11-16T15:22:51.226Z,99607.75
2022-11-16T15:25:36.688Z,99600.47
2022-11-16T15:28:13.383Z,99585.22
2022-11-16T15:30:40.530Z,99584.28
2022-11-16T15:33:36.363Z,99587.34
2022-11-16T15:36:33.316Z,99590.19
2022-11-16T15:39:02.234Z,99590.03
2022-11-16T15:41:29.409Z,99590.91
2022-11-16T15:44:14.196Z,99588.31
2022-11-16T15:46:44.532Z,99593.22
2022-11-16T15:49:25.009Z,99585.16
2022-11-16T15:51:51.570Z,99578.66
2022-11-16T15:54:53.030Z,99580.56
2022-11-16T15:57:23.144Z,99578.53
2022-11-16T15:59:54.590Z,99571.09
2022-11-16T16:02:23.698Z,99565.97
2022-11-16T16:04:50.577Z,99558.59
2022-11-16T16:07:36.748Z,99536.16
2022-11-16T16:10:18.542Z,99538.50
2022-11-16T16:12:54.997Z,99536.41
2022-11-16T16:15:24.988Z,99531.06
2022-11-16T16:17:53.960Z,99527.69
2022-11-16T16:20:24.732Z,99511.53
2022-11-16T16:22:52.390Z,99499.72
2022-11-16T16:25:30.395Z,99501.13
2022-11-16T16:27:58.238Z,99505.19
2022-11-16T16:30:25.876Z,99505.97
2022-11-16T16:32:53.259Z,99496.59
2022-11-16T16:35:22.466Z,99497.41
2022-11-16T16:37:50.316Z,99490.69
2022-11-16T16:40:18.360Z,99483.16
2022-11-16T16:42:48.132Z,99476.84
2022-11-16T16:45:39.195Z,99482.88
2022-11-16T16:48:06.297Z,99492.44
2022-11-16T16:50:32.959Z,99496.13
2022-11-16T16:52:59.692Z,99497.00
2022-11-16T16:55:26.806Z,99501.25
2022-11-16T16:57:57.004Z,99497.56
2022-11-16T17:00:24.899Z,99486.13
2022-11-16T17:02:51.877Z,99479.72
2022-11-16T17:05:18.418Z,99476.84
2022-11-16T17:07:46.348Z,99473.59
2022-11-16T17:10:13.232Z,99479.91
2022-11-16T17:12:40.972Z,99472.16
2022-11-16T17:15:08.124Z,99478.09
2022-11-16T17:17:36.660Z,99468.88
2022-11-16T17:20:04.359Z,99466.81
2022-11-16T17:22:30.972Z,99465.44
2022-11-16T17:24:57.456Z,99479.69
2022-11-16T17:27:23.918Z,99476.03
2022-11-16T17:29:50.451Z,99467.50
2022-11-16T17:32:16.917Z,99467.28
2022-11-16T17:34:43.490Z,99462.22
2022-11-16T17:37:10.049Z,99459.75
2022-11-16T17:39:36.602Z,99454.69
2022-11-16T17:42:03.202Z,99454.09
2022-11-16T17:44:30.568Z,99454.91
2022-11-16T17:46:57.041Z,99456.97
2022-11-16T17:49:23.581Z,99463.06
2022-11-16T17:51:50.062Z,99457.63
2022-11-16T17:54:16.632Z,99460.63
2022-11-16T17:56:43.250Z,99458.19
2022-11-16T17:59:09.796Z,99454.59
2022-11-16T18:01:36.734Z,99455.63
2022-11-16T18:04:03.411Z,99446.91
2022-11-16T18:06:29.949Z,99446.91
2022-11-16T18:08:56.971Z,99446.31
2022-11-16T18:11:26.512Z,99433.53
2022-11-16T18:13:58.335Z,99438.44
2022-11-16T18:16:28.116Z,99438.00
2022-11-16T18:19:04.108Z,99420.94
2022-11-16T18:21:31.063Z,99423.16
2022-11-16T18:24:00.377Z,99429.47
2022-11-16T18:26:27.139Z,99422.13
2022-11-16T18:28:54.047Z,99417.28
2022-11-16T18:31:22.572Z,99410.94
2022-11-16T18:33:49.527Z,99410.94
2022-11-16T18:36:16.864Z,99402.19
2022-11-16T18:38:43.447Z,99390.59
2022-11-16T18:41:12.714Z,99387.06
2022-11-16T18:43:39.867Z,99383.19
2022-11-16T18:46:06.761Z,99367.97
2022-11-16T18:48:33.284Z,99353.72
2022-11-16T18:51:00.861Z,99342.47
2022-11-16T18:53:28.781Z,99335.94
2022-11-16T18:55:58.016Z,99322.72
2022-11-16T18:58:49.389Z,99308.09
2022-11-16T19:01:14.621Z,99300.38
2022-11-16T19:03:41.422Z,99287.38
2022-11-16T19:06:09.897Z,99285.31
2022-11-16T19:08:42.105Z,99276.78
2022-11-16T19:11:13.954Z,99267.81
2022-11-16T19:13:42.069Z,99259.88
2022-11-16T19:16:10.585Z,99249.28
2022-11-16T19:18:37.481Z,99245.41
2022-11-16T19:21:15.288Z,99240.47
2022-11-16T19:23:44.618Z,99238.63
2022-11-16T19:26:13.016Z,99222.75
2022-11-16T19:28:41.626Z,99219.69
2022-11-16T19:31:15.346Z,99215.41
2022-11-16T19:33:46.231Z,99193.88
2022-11-16T19:36:18.742Z,99210.47
2022-11-16T19:38:46.992Z,99196.19
2022-11-16T19:41:15.904Z,99200.84
2022-11-16T19:43:45.000Z,99191.88
2022-11-16T19:46:16.601Z,99187.75
2022-11-16T19:48:47.275Z,99171.75
2022-11-16T19:51:16.797Z,99172.91
2022-11-16T19:53:48.334Z,99166.59
2022-11-16T19:56:23.391Z,99156.00
2022-11-16T19:58:56.163Z,99146.69
2022-11-16T20:01:29.604Z,99151.97
2022-11-16T20:04:02.332Z,99150.25
2022-11-16T20:06:31.527Z,99151.59
2022-11-16T20:09:02.750Z,99145.91
2022-11-16T20:11:50.311Z,99153.03
2022-11-16T20:14:19.242Z,99130.59
2022-11-16T20:16:55.621Z,99124.25
2022-11-16T20:19:27.722Z,99079.97
2022-11-16T20:21:55.411Z,99084.03
2022-11-16T20:24:24.541Z,99062.03
2022-11-16T20:26:52.366Z,99044.91
2022-11-16T20:29:19.632Z,99053.31
2022-11-16T20:31:47.322Z,99038.72
2022-11-16T20:34:17.814Z,99026.53
2022-11-16T20:36:46.487Z,99008.94
2022-11-16T20:39:15.142Z,99013.88
2022-11-16T20:41:42.940Z,99003.31
2022-11-16T20:44:16.616Z,99001.94
2022-11-16T20:46:45.016Z,98980.22
2022-11-16T20:49:12.108Z,98964.81
2022-11-16T20:51:40.494Z,98976.88
2022-11-16T20:54:07.528Z,98960.91
2022-11-16T20:56:34.507Z,98934.22
2022-11-16T20:59:01.106Z,98941.81
2022-11-16T21:01:28.921Z,98928.59
2022-11-16T21:03:56.994Z,98912.50
2022-11-16T21:06:23.723Z,98890.00
2022-11-16T21:08:50.259Z,98878.50
2022-11-16T21:11:19.798Z,98858.38
2022-11-16T21:14:06.094Z,98846.78
2022-11-16T21:16:34.676Z,98835.88
2022-11-16T21:19:01.926Z,98831.69
2022-11-16T21:21:29.326Z,98821.00
2022-11-16T21:23:56.003Z,98810.19
2022-11-16T21:26:25.572Z,98804.75
2022-11-16T21:28:52.590Z,98769.13
2022-11-16T21:31:21.833Z,98767.28
2022-11-16T21:33:48.672Z,98760.72
2022-11-16T21:36:18.864Z,98750.47
2022-11-16T21:38:45.804Z,98728.25
2022-11-16T21:41:13.884Z,98734.69
2022-11-16T21:43:41.146Z,98722.03
2022-11-16T21:46:14.708Z,98697.91
2022-11-16T21:48:41.317Z,98704.53
2022-11-16T21:51:12.351Z,98687.16
2022-11-16T21:53:39.531Z,98677.94
2022-11-16T21:56:08.129Z,98662.31
2022-11-16T21:58:34.625Z,98651.72
2022-11-16T22:01:02.290Z,98648.59
2022-11-16T22:03:31.045Z,98639.44
2022-11-16T22:06:18.889Z,98628.50
2022-11-16T22:08:46.951Z,98622.94
2022-11-16T22:11:14.870Z,98618.47
2022-11-16T22:13:41.738Z,98599.97
2022-11-16T22:16:10.938Z,98590.22
2022-11-16T22:18:38.013Z,98595.50
2022-11-16T22:21:05.500Z,98583.28
2022-11-16T22:23:32.712Z,98571.47
2022-11-16T22:26:08.008Z,98572.00
2022-11-16T22:28:35.982Z,98572.25
2022-11-16T22:31:05.468Z,98549.69
2022-11-16T22:33:33.214Z,98548.19
2022-11-16T22:36:00.452Z,98545.25
2022-11-16T22:38:27.499Z,98547.41
2022-11-16T22:40:55.792Z,98545.78
2022-11-16T22:43:27.898Z,98537.06
2022-11-16T22:46:01.163Z,98533.63
2022-11-16T22:48:36.007Z,98521.19
2022-11-16T22:51:06.957Z,98504.50
2022-11-16T22:53:34.120Z,98499.69
2022-11-16T22:56:08.583Z,98497.53
2022-11-16T22:58:36.412Z,98489.34
2022-11-16T23:01:03.199Z,98489.59
2022-11-16T23:03:30.968Z,98474.19
2022-11-16T23:05:57.521Z,98460.97
2022-11-16T23:08:25.043Z,98445.34
2022-11-16T23:11:17.862Z,98431.88
2022-11-16T23:14:03.151Z,98441.19
2022-11-16T23:16:29.866Z,98437.22
2022-11-16T23:18:56.616Z,98418.47
2022-11-16T23:21:42.442Z,98422.16
2022-11-16T23:24:36.362Z,98414.00
2022-11-16T23:27:22.544Z,98398.94
2022-11-16T23:29:49.505Z,98385.94
2022-11-16T23:32:16.143Z,98379.84
2022-11-16T23:34:42.619Z,98388.13
2022-11-16T23:37:09.274Z,98373.06
2022-11-16T23:39:35.856Z,98378.09
2022-11-16T23:42:21.124Z,98367.03
2022-11-16T23:44:47.591Z,98361.72
2022-11-16T23:47:14.081Z,98355.63
2022-11-16T23:49:41.720Z,98346.91
2022-11-16T23:52:08.158Z,98336.81
2022-11-16T23:54:35.942Z,98347.13
2022-11-16T23:57:05.605Z,98348.25
2022-11-16T23:59:32.771Z,98345.88
